KBLH/BLH METAR and TAF weather

Enter ICAO airport designator
Station Type Date Time Source
KBLH METAR 2020/01/19 16:52 UTC NOAA

KBLH 191652Z AUTO 21004KT 10SM CLR 11/M06 A3024 RMK AO2 SLP239 T01111056


Station Type Date Time Source
KBLH Decoded METAR 2020/01/19 16:52 UTC NOAA

BLYTHE AIRPORT, CA, United States (KBLH) 33-37N 114-43W 119M
Jan 19, 2020 - 11:52 AM EST / 2020.01.19 1652 UTC
Wind: from the SSW (210 degrees) at 5 MPH (4 KT):0
Visibility: 10 mile(s):0
Sky conditions: clear
Temperature: 52.0 F (11.1 C)
Dew Point: 21.9 F (-5.6 C)
Relative Humidity: 30%
Pressure (altimeter): 30.24 in. Hg (1024 hPa)
ob: KBLH 191652Z AUTO 21004KT 10SM CLR 11/M06 A3024 RMK AO2 SLP239 T01111056
cycle: 17

Station Type Date Time Source
KBLH TAF 2020/01/19 18:22 UTC NOAA

TAF KBLH 191720Z 1918/2018 36009KT P6SM SCT250
FM200600 31005KT P6SM SCT150 BKN200

Example: see airport list